Time;durP1;ratioP1;P1;durP2;ratioP2;P2;SDS_P1;SDS_P2;PMS_P1;PMS_P2;Temp;Humidity;BMP_temperature;BMP_pressure;BME280_temperature;BME280_humidity;BME280_pressure;Samples;Min_cycle;Max_cycle;Signal;HPM_P1;HPM_P2
2021/04/18 00:00:41;;;;;;;8.65;6.65;;;;;;;;;;5097778;28;20277;-74
2021/04/18 00:03:07;;;;;;;10.73;6.77;;;;;;;;;;5095663;28;20175;-75
2021/04/18 00:05:33;;;;;;;8.07;6.32;;;;;;;;;;5092790;28;20902;-75
2021/04/18 00:08:02;;;;;;;8.27;6.55;;;;;;;;;;5093107;28;20207;-75
2021/04/18 00:10:32;;;;;;;11.57;6.50;;;;;;;;;;5095149;28;20233;-75
2021/04/18 00:12:58;;;;;;;8.05;6.70;;;;;;;;;;5105056;28;20201;-77
2021/04/18 00:15:25;;;;;;;9.77;6.43;;;;;;;;;;5112717;28;20182;-74
2021/04/18 00:17:51;;;;;;;9.52;6.53;;;;;;;;;;5096440;28;20617;-74
2021/04/18 00:20:17;;;;;;;7.67;6.53;;;;;;;;;;5107743;28;20203;-74
2021/04/18 00:22:44;;;;;;;9.93;6.32;;;;;;;;;;5096685;28;20482;-74
2021/04/18 00:25:10;;;;;;;11.13;6.35;;;;;;;;;;5097271;28;20183;-76
2021/04/18 00:27:36;;;;;;;7.80;6.40;;;;;;;;;;5096301;28;20191;-73
2021/04/18 00:30:02;;;;;;;10.90;7.00;;;;;;;;;;5100024;28;20647;-73
2021/04/18 00:32:28;;;;;;;8.85;6.47;;;;;;;;;;5101255;28;20434;-76
2021/04/18 00:34:54;;;;;;;8.93;6.70;;;;;;;;;;5109578;28;20175;-74
2021/04/18 00:37:20;;;;;;;8.00;7.00;;;;;;;;;;5101767;28;22170;-74
2021/04/18 00:39:46;;;;;;;9.00;6.50;;;;;;;;;;5102414;28;22046;-74
2021/04/18 00:42:12;;;;;;;10.27;7.30;;;;;;;;;;5096363;28;20773;-75
2021/04/18 00:44:38;;;;;;;11.98;7.43;;;;;;;;;;5105720;28;20865;-73
2021/04/18 00:47:04;;;;;;;14.82;6.55;;;;;;;;;;5111790;28;20552;-73
2021/04/18 00:49:30;;;;;;;8.80;6.33;;;;;;;;;;5096430;28;20587;-74
2021/04/18 00:51:57;;;;;;;8.73;7.00;;;;;;;;;;5098991;28;20493;-74
2021/04/18 00:54:23;;;;;;;9.30;6.78;;;;;;;;;;5116830;28;20766;-73
2021/04/18 00:56:49;;;;;;;13.53;7.17;;;;;;;;;;5101614;28;20194;-74
2021/04/18 00:59:15;;;;;;;14.73;7.00;;;;;;;;;;5105518;28;20923;-73
2021/04/18 01:01:41;;;;;;;12.98;7.05;;;;;;;;;;5099889;28;20484;-74
2021/04/18 01:04:07;;;;;;;11.10;9.70;;;;;;;;;;5105390;28;20274;-74
2021/04/18 01:06:33;;;;;;;8.93;7.13;;;;;;;;;;5115386;28;20419;-74
2021/04/18 01:09:00;;;;;;;12.30;7.20;;;;;;;;;;5096048;28;20186;-74
2021/04/18 01:11:26;;;;;;;7.50;6.47;;;;;;;;;;5094690;28;20210;-73
2021/04/18 01:13:52;;;;;;;10.40;6.90;;;;;;;;;;5096337;28;20195;-74
2021/04/18 01:16:18;;;;;;;12.27;7.17;;;;;;;;;;5103597;28;20192;-75
2021/04/18 01:18:44;;;;;;;7.18;6.38;;;;;;;;;;5096075;28;20758;-74
2021/04/18 01:21:10;;;;;;;14.30;6.87;;;;;;;;;;5097359;28;20180;-74
2021/04/18 01:23:36;;;;;;;8.40;6.40;;;;;;;;;;5107957;28;20485;-74
2021/04/18 01:26:03;;;;;;;9.80;6.20;;;;;;;;;;5094156;28;20171;-74
2021/04/18 01:28:29;;;;;;;8.55;5.80;;;;;;;;;;5095600;28;20237;-74
2021/04/18 01:30:55;;;;;;;10.37;7.47;;;;;;;;;;5114388;28;20171;-74
2021/04/18 01:33:22;;;;;;;12.85;7.07;;;;;;;;;;5094859;28;20461;-74
2021/04/18 01:35:48;;;;;;;8.10;6.22;;;;;;;;;;5096003;28;20182;-74
2021/04/18 01:38:15;;;;;;;10.38;6.40;;;;;;;;;;5095809;28;20167;-74
2021/04/18 01:40:43;;;;;;;6.85;5.75;;;;;;;;;;5104902;28;20540;-73
2021/04/18 01:43:13;;;;;;;13.85;6.90;;;;;;;;;;5114457;28;20250;-74
2021/04/18 01:45:39;;;;;;;10.27;6.10;;;;;;;;;;5115919;28;20197;-74
2021/04/18 01:48:05;;;;;;;10.20;7.18;;;;;;;;;;5112268;28;20549;-76
2021/04/18 01:50:32;;;;;;;6.68;5.63;;;;;;;;;;5095140;28;20167;-74
2021/04/18 01:52:58;;;;;;;8.90;6.50;;;;;;;;;;5093104;28;20765;-74
2021/04/18 01:55:24;;;;;;;8.98;6.25;;;;;;;;;;5105938;28;20273;-74
2021/04/18 01:57:50;;;;;;;7.87;6.10;;;;;;;;;;5097435;28;20527;-74
2021/04/18 02:00:17;;;;;;;9.05;6.50;;;;;;;;;;5106107;28;20424;-75
2021/04/18 02:02:43;;;;;;;6.68;5.93;;;;;;;;;;5097485;28;20190;-74
2021/04/18 02:05:09;;;;;;;10.45;6.35;;;;;;;;;;5094779;28;20248;-74
2021/04/18 02:07:35;;;;;;;8.73;6.40;;;;;;;;;;5095007;28;20290;-75
2021/04/18 02:10:01;;;;;;;8.95;5.95;;;;;;;;;;5094858;28;20258;-74
2021/04/18 02:12:27;;;;;;;7.87;6.30;;;;;;;;;;5108727;28;20282;-74
2021/04/18 02:14:53;;;;;;;8.68;6.07;;;;;;;;;;5105695;28;20398;-74
2021/04/18 02:17:19;;;;;;;7.53;5.53;;;;;;;;;;5097176;28;20602;-74
2021/04/18 02:19:45;;;;;;;8.43;5.80;;;;;;;;;;5094936;28;20521;-75
2021/04/18 02:22:11;;;;;;;9.20;6.53;;;;;;;;;;5094449;28;20266;-74
2021/04/18 02:24:37;;;;;;;11.33;5.80;;;;;;;;;;5103691;28;20395;-75
2021/04/18 02:27:03;;;;;;;7.20;5.45;;;;;;;;;;5107840;28;20430;-75
2021/04/18 02:29:29;;;;;;;7.00;5.83;;;;;;;;;;5102811;28;20182;-75
2021/04/18 02:31:55;;;;;;;7.60;5.63;;;;;;;;;;5093739;28;20497;-75
2021/04/18 02:34:21;;;;;;;7.55;5.97;;;;;;;;;;5093934;28;20429;-75
2021/04/18 02:36:47;;;;;;;9.53;5.37;;;;;;;;;;5094646;28;20235;-75
2021/04/18 02:39:13;;;;;;;6.68;5.47;;;;;;;;;;5094541;28;20457;-75
2021/04/18 02:41:39;;;;;;;6.80;5.83;;;;;;;;;;5112428;28;20261;-74
2021/04/18 02:44:05;;;;;;;9.30;5.33;;;;;;;;;;5094955;28;20442;-74
2021/04/18 02:46:31;;;;;;;9.70;6.10;;;;;;;;;;5103943;28;20422;-73
2021/04/18 02:48:57;;;;;;;9.40;5.82;;;;;;;;;;5101519;28;20175;-76
2021/04/18 02:51:23;;;;;;;7.80;5.35;;;;;;;;;;5094196;28;20963;-75
2021/04/18 02:53:49;;;;;;;6.20;5.40;;;;;;;;;;5105451;28;20179;-75
2021/04/18 02:56:15;;;;;;;9.40;5.13;;;;;;;;;;5093802;28;20532;-74
2021/04/18 02:58:41;;;;;;;9.00;4.87;;;;;;;;;;5094629;28;20747;-74
2021/04/18 03:01:07;;;;;;;8.43;5.10;;;;;;;;;;5094215;28;20464;-74
2021/04/18 03:03:33;;;;;;;9.20;5.60;;;;;;;;;;5092427;28;20437;-74
2021/04/18 03:05:59;;;;;;;6.20;4.50;;;;;;;;;;5093853;28;20384;-74
2021/04/18 03:08:25;;;;;;;7.90;4.90;;;;;;;;;;5097873;28;20972;-74
2021/04/18 03:10:51;;;;;;;9.57;4.70;;;;;;;;;;5108025;28;20475;-75
2021/04/18 03:13:17;;;;;;;7.78;4.90;;;;;;;;;;5100704;28;20449;-74
2021/04/18 03:15:44;;;;;;;6.00;4.43;;;;;;;;;;5093764;28;20218;-75
2021/04/18 03:18:10;;;;;;;6.38;4.40;;;;;;;;;;5093775;28;20526;-75
2021/04/18 03:20:36;;;;;;;8.32;4.78;;;;;;;;;;5094102;28;20552;-75
2021/04/18 03:23:02;;;;;;;7.00;4.33;;;;;;;;;;5093849;28;20180;-76
2021/04/18 03:25:28;;;;;;;5.27;4.20;;;;;;;;;;5093884;28;20388;-74
2021/04/18 03:27:54;;;;;;;6.40;4.43;;;;;;;;;;5093586;28;20428;-74
2021/04/18 03:30:20;;;;;;;13.03;4.37;;;;;;;;;;5093247;28;20403;-74
2021/04/18 03:32:46;;;;;;;6.03;4.03;;;;;;;;;;5093267;28;20850;-74
2021/04/18 03:35:12;;;;;;;12.90;5.10;;;;;;;;;;5093462;28;20202;-74
2021/04/18 03:37:38;;;;;;;7.28;4.38;;;;;;;;;;5093251;28;20411;-75
2021/04/18 03:40:05;;;;;;;8.77;4.50;;;;;;;;;;5097390;28;20178;-74
2021/04/18 03:42:31;;;;;;;7.32;5.85;;;;;;;;;;5113572;28;20417;-74
2021/04/18 03:44:57;;;;;;;5.18;4.65;;;;;;;;;;5095560;28;20595;-74
2021/04/18 03:47:23;;;;;;;5.40;4.72;;;;;;;;;;5099786;28;20217;-74
2021/04/18 03:49:49;;;;;;;8.47;4.60;;;;;;;;;;5097230;28;20582;-74
2021/04/18 03:52:15;;;;;;;7.93;4.83;;;;;;;;;;5103108;28;20420;-74
2021/04/18 03:54:41;;;;;;;8.70;4.90;;;;;;;;;;5092579;28;20429;-75
2021/04/18 03:57:07;;;;;;;7.83;4.70;;;;;;;;;;5093182;28;20408;-74
2021/04/18 03:59:33;;;;;;;9.85;5.10;;;;;;;;;;5093580;28;20400;-74
2021/04/18 04:01:59;;;;;;;4.70;4.30;;;;;;;;;;5113641;28;20177;-75
2021/04/18 04:04:25;;;;;;;8.75;5.00;;;;;;;;;;5101125;28;20498;-75
2021/04/18 04:06:52;;;;;;;7.03;4.87;;;;;;;;;;5105980;28;20282;-74
2021/04/18 04:09:18;;;;;;;6.07;4.60;;;;;;;;;;5097187;28;20427;-76
2021/04/18 04:11:44;;;;;;;9.80;5.60;;;;;;;;;;5103318;28;20207;-74
2021/04/18 04:14:10;;;;;;;9.48;4.95;;;;;;;;;;5092862;28;20178;-74
2021/04/18 04:16:36;;;;;;;8.40;4.63;;;;;;;;;;5100172;28;20671;-75
2021/04/18 04:19:02;;;;;;;8.45;5.30;;;;;;;;;;5109639;28;20184;-75
2021/04/18 04:21:28;;;;;;;6.33;4.13;;;;;;;;;;5113487;28;20182;-75
2021/04/18 04:23:53;;;;;;;9.27;4.82;;;;;;;;;;5112516;28;20444;-75
2021/04/18 04:26:20;;;;;;;7.23;4.70;;;;;;;;;;5092512;28;20212;-73
2021/04/18 04:28:45;;;;;;;5.60;4.20;;;;;;;;;;5092644;28;20400;-73
2021/04/18 04:31:11;;;;;;;9.60;5.73;;;;;;;;;;5092866;28;20191;-75
2021/04/18 04:33:38;;;;;;;9.02;4.32;;;;;;;;;;5106966;28;20496;-74
2021/04/18 04:36:04;;;;;;;8.13;4.30;;;;;;;;;;5095465;28;20524;-73
2021/04/18 04:38:31;;;;;;;6.70;4.30;;;;;;;;;;5093024;28;20202;-73
2021/04/18 04:40:57;;;;;;;6.95;4.22;;;;;;;;;;5099399;28;20202;-74
2021/04/18 04:43:23;;;;;;;9.50;5.28;;;;;;;;;;5102823;28;20176;-75
2021/04/18 04:45:49;;;;;;;5.05;3.70;;;;;;;;;;5092391;28;20180;-75
2021/04/18 04:48:15;;;;;;;4.63;3.95;;;;;;;;;;5092438;28;20183;-74
2021/04/18 04:50:41;;;;;;;8.25;4.60;;;;;;;;;;5092323;28;20175;-75
2021/04/18 04:53:07;;;;;;;5.80;5.00;;;;;;;;;;5071115;28;20263;-74
2021/04/18 04:55:33;;;;;;;9.77;4.60;;;;;;;;;;5094404;28;20860;-75
2021/04/18 04:57:59;;;;;;;6.53;4.50;;;;;;;;;;5096279;28;20396;-74
2021/04/18 05:00:25;;;;;;;5.68;4.45;;;;;;;;;;5097800;28;20232;-74
2021/04/18 05:02:51;;;;;;;5.47;4.50;;;;;;;;;;5114763;28;20228;-73
2021/04/18 05:05:17;;;;;;;8.03;4.40;;;;;;;;;;5103106;28;20199;-74
2021/04/18 05:07:43;;;;;;;8.55;4.43;;;;;;;;;;5095621;28;20516;-75
2021/04/18 05:10:09;;;;;;;7.78;4.35;;;;;;;;;;5100831;28;20203;-74
2021/04/18 05:12:35;;;;;;;8.18;4.38;;;;;;;;;;5116742;27;20259;-75
2021/04/18 05:15:01;;;;;;;5.77;4.47;;;;;;;;;;5096786;28;20584;-74
2021/04/18 05:17:28;;;;;;;8.02;4.40;;;;;;;;;;5095357;28;20412;-74
2021/04/18 05:19:54;;;;;;;6.10;4.40;;;;;;;;;;5095801;28;20175;-75
2021/04/18 05:22:20;;;;;;;7.00;4.73;;;;;;;;;;5115046;28;20187;-75
2021/04/18 05:24:46;;;;;;;9.20;4.93;;;;;;;;;;5105465;28;20427;-75
2021/04/18 05:27:12;;;;;;;14.00;8.32;;;;;;;;;;5100514;28;20583;-74
2021/04/18 05:29:38;;;;;;;13.48;6.40;;;;;;;;;;5095468;28;20633;-76
2021/04/18 05:32:05;;;;;;;9.70;5.27;;;;;;;;;;5095738;28;20276;-75
2021/04/18 05:34:32;;;;;;;9.32;4.95;;;;;;;;;;5106196;28;20839;-76
2021/04/18 05:37:00;;;;;;;6.90;5.03;;;;;;;;;;5105852;28;20272;-74
2021/04/18 05:39:26;;;;;;;11.18;5.20;;;;;;;;;;5096394;28;20175;-74
2021/04/18 05:41:52;;;;;;;8.75;4.95;;;;;;;;;;5114353;28;20174;-74
2021/04/18 05:44:18;;;;;;;8.17;4.90;;;;;;;;;;5102417;28;20175;-75
2021/04/18 05:46:44;;;;;;;6.83;5.07;;;;;;;;;;5101875;28;20824;-75
2021/04/18 05:49:10;;;;;;;14.45;6.35;;;;;;;;;;5095423;28;20602;-73
2021/04/18 05:51:36;;;;;;;12.32;5.60;;;;;;;;;;5094987;28;20522;-74
2021/04/18 05:54:04;;;;;;;7.95;5.35;;;;;;;;;;5094828;28;20178;-75
2021/04/18 05:56:30;;;;;;;6.53;4.53;;;;;;;;;;5095176;28;20269;-75
2021/04/18 05:58:56;;;;;;;8.57;5.00;;;;;;;;;;5108556;28;20176;-74
2021/04/18 06:01:23;;;;;;;7.70;5.97;;;;;;;;;;5104093;28;20179;-75
2021/04/18 06:03:56;;;;;;;8.43;5.88;;;;;;;;;;5111557;28;20425;-74
2021/04/18 06:06:28;;;;;;;10.43;6.38;;;;;;;;;;5094952;28;20202;-76
2021/04/18 06:08:54;;;;;;;9.68;5.40;;;;;;;;;;5106879;28;20562;-74
2021/04/18 06:11:20;;;;;;;9.07;5.28;;;;;;;;;;5094946;28;20317;-75
2021/04/18 06:13:47;;;;;;;9.55;5.28;;;;;;;;;;5094375;28;20167;-73
2021/04/18 06:16:13;;;;;;;10.27;6.05;;;;;;;;;;5094889;28;20276;-75
2021/04/18 06:18:39;;;;;;;8.18;5.80;;;;;;;;;;5099357;28;20573;-74
2021/04/18 06:21:05;;;;;;;8.32;4.65;;;;;;;;;;5098565;28;20180;-74
2021/04/18 06:23:31;;;;;;;7.75;5.25;;;;;;;;;;5094620;28;20533;-74
2021/04/18 06:25:57;;;;;;;7.88;5.07;;;;;;;;;;5094457;28;20190;-74
2021/04/18 06:28:23;;;;;;;7.90;5.27;;;;;;;;;;5095495;28;20179;-74
2021/04/18 06:30:50;;;;;;;5.97;5.22;;;;;;;;;;5095276;28;20421;-76
2021/04/18 06:33:16;;;;;;;11.50;5.43;;;;;;;;;;5105471;28;20206;-75
2021/04/18 06:35:42;;;;;;;10.07;5.10;;;;;;;;;;5106358;28;20183;-75
2021/04/18 06:38:09;;;;;;;7.40;5.13;;;;;;;;;;5109480;28;20686;-74
2021/04/18 06:40:36;;;;;;;9.38;5.20;;;;;;;;;;5094522;28;20555;-75
2021/04/18 06:43:03;;;;;;;12.20;7.32;;;;;;;;;;5094364;28;20263;-74
2021/04/18 06:45:29;;;;;;;8.63;5.35;;;;;;;;;;5102964;28;20268;-74
2021/04/18 06:47:55;;;;;;;9.27;5.45;;;;;;;;;;5094250;28;20199;-75
2021/04/18 06:50:21;;;;;;;9.93;5.72;;;;;;;;;;5094294;28;20178;-75
2021/04/18 06:52:47;;;;;;;8.40;5.20;;;;;;;;;;5112009;28;20202;-75
2021/04/18 06:55:14;;;;;;;9.13;5.22;;;;;;;;;;5102395;28;20179;-75
2021/04/18 06:57:40;;;;;;;6.63;5.30;;;;;;;;;;5093970;28;20256;-75
2021/04/18 07:00:07;;;;;;;11.93;5.97;;;;;;;;;;5093649;28;20633;-75
2021/04/18 07:02:34;;;;;;;9.27;5.00;;;;;;;;;;5093656;28;20767;-75
2021/04/18 07:05:03;;;;;;;7.85;5.35;;;;;;;;;;5093431;28;20281;-76
2021/04/18 07:07:30;;;;;;;8.50;5.90;;;;;;;;;;5113112;28;20559;-76
2021/04/18 07:09:56;;;;;;;7.13;5.45;;;;;;;;;;5105746;28;20237;-74
2021/04/18 07:12:26;;;;;;;8.97;5.73;;;;;;;;;;5093978;28;20655;-75
2021/04/18 07:14:52;;;;;;;8.25;5.40;;;;;;;;;;5092873;28;20444;-75
2021/04/18 07:17:18;;;;;;;7.37;4.70;;;;;;;;;;5093185;28;20191;-74
2021/04/18 07:19:46;;;;;;;8.70;5.93;;;;;;;;;;5092272;28;20910;-76
2021/04/18 07:22:15;;;;;;;7.85;5.15;;;;;;;;;;5114142;28;20170;-75
2021/04/18 07:24:52;;;;;;;8.18;5.20;;;;;;;;;;5108529;28;20183;-75
2021/04/18 07:27:18;;;;;;;5.57;4.93;;;;;;;;;;5110558;28;20657;-75
2021/04/18 07:29:53;;;;;;;8.38;6.05;;;;;;;;;;5095485;28;20263;-75
2021/04/18 07:32:23;;;;;;;8.00;5.50;;;;;;;;;;5113659;28;20193;-76
2021/04/18 07:34:49;;;;;;;10.10;5.65;;;;;;;;;;5096400;28;20179;-75
2021/04/18 07:37:17;;;;;;;7.80;5.25;;;;;;;;;;5091400;28;20267;-76
2021/04/18 07:39:59;;;;;;;7.95;5.85;;;;;;;;;;5093554;28;20176;-75
2021/04/18 07:42:38;;;;;;;10.07;5.65;;;;;;;;;;5093644;28;20549;-76
2021/04/18 07:45:04;;;;;;;8.75;5.47;;;;;;;;;;5090917;28;20203;-76
2021/04/18 07:47:33;;;;;;;15.27;6.22;;;;;;;;;;5093034;28;20282;-75
2021/04/18 07:49:59;;;;;;;8.55;5.95;;;;;;;;;;5093203;28;20175;-75
2021/04/18 07:52:26;;;;;;;11.15;6.95;;;;;;;;;;5093152;28;20195;-75
2021/04/18 07:54:52;;;;;;;8.73;6.30;;;;;;;;;;5092695;28;20197;-74
2021/04/18 07:57:19;;;;;;;8.77;6.45;;;;;;;;;;5093633;28;20702;-76
2021/04/18 07:59:45;;;;;;;9.18;5.70;;;;;;;;;;5091112;28;20221;-76
2021/04/18 08:02:15;;;;;;;10.75;6.13;;;;;;;;;;5079085;28;20187;-76
2021/04/18 08:04:42;;;;;;;9.77;5.93;;;;;;;;;;5090967;28;20321;-77
2021/04/18 08:07:08;;;;;;;10.23;5.85;;;;;;;;;;5089274;28;20253;-76
2021/04/18 08:09:34;;;;;;;8.33;5.70;;;;;;;;;;5087765;28;20180;-76
2021/04/18 08:12:05;;;;;;;9.13;6.18;;;;;;;;;;5092371;28;20554;-76
2021/04/18 08:14:32;;;;;;;11.10;6.00;;;;;;;;;;5089023;28;20559;-76
2021/04/18 08:17:06;;;;;;;11.82;6.45;;;;;;;;;;5089199;28;20201;-76
2021/04/18 08:19:32;;;;;;;8.55;6.65;;;;;;;;;;5088932;28;20176;-75
2021/04/18 08:21:58;;;;;;;9.73;6.70;;;;;;;;;;5089188;28;20176;-75
2021/04/18 08:24:23;;;;;;;7.63;6.17;;;;;;;;;;5097457;28;20212;-77
2021/04/18 08:26:56;;;;;;;9.57;6.50;;;;;;;;;;5105826;28;20485;-76
2021/04/18 08:29:21;;;;;;;10.52;7.05;;;;;;;;;;5084224;28;20944;-75
2021/04/18 08:31:52;;;;;;;12.20;7.67;;;;;;;;;;5092715;28;20199;-75
2021/04/18 08:34:19;;;;;;;16.52;8.85;;;;;;;;;;5093521;28;20426;-75
2021/04/18 08:36:50;;;;;;;8.75;6.78;;;;;;;;;;5092905;28;20224;-75
2021/04/18 08:39:16;;;;;;;9.00;6.85;;;;;;;;;;5104236;28;20580;-75
2021/04/18 08:41:42;;;;;;;14.47;7.30;;;;;;;;;;5113156;28;20257;-76
2021/04/18 08:44:19;;;;;;;31.43;20.87;;;;;;;;;;5101096;28;20475;-76
2021/04/18 08:46:46;;;;;;;27.05;21.80;;;;;;;;;;5092456;28;20432;-75
2021/04/18 08:49:13;;;;;;;13.32;11.15;;;;;;;;;;5092504;28;20642;-76
2021/04/18 08:51:39;;;;;;;12.93;9.07;;;;;;;;;;5111483;28;20213;-75
2021/04/18 08:54:05;;;;;;;12.13;7.55;;;;;;;;;;5112547;28;20580;-75
2021/04/18 08:56:44;;;;;;;9.10;7.90;;;;;;;;;;5095126;27;20282;-75
2021/04/18 08:59:11;;;;;;;10.20;7.38;;;;;;;;;;5107649;28;20170;-75
2021/04/18 09:01:37;;;;;;;9.32;7.60;;;;;;;;;;5104601;28;20179;-76
2021/04/18 09:04:05;;;;;;;8.95;7.60;;;;;;;;;;5107049;28;20285;-75
2021/04/18 09:06:35;;;;;;;15.02;7.15;;;;;;;;;;5104983;27;20199;-75
2021/04/18 09:09:05;;;;;;;8.95;7.05;;;;;;;;;;5092343;28;20282;-75
2021/04/18 09:11:42;;;;;;;9.15;7.30;;;;;;;;;;5091974;28;20187;-75
2021/04/18 09:14:08;;;;;;;9.93;8.13;;;;;;;;;;5096513;28;20547;-75
2021/04/18 09:16:35;;;;;;;8.65;7.75;;;;;;;;;;5108685;28;20200;-75
2021/04/18 09:19:20;;;;;;;14.55;7.45;;;;;;;;;;5096813;28;20182;-75
2021/04/18 09:21:53;;;;;;;11.97;8.23;;;;;;;;;;5085680;28;20191;-76
2021/04/18 09:24:19;;;;;;;8.30;7.50;;;;;;;;;;5091648;28;20441;-75
2021/04/18 09:27:05;;;;;;;12.17;7.43;;;;;;;;;;5106952;28;20252;-74
2021/04/18 09:29:32;;;;;;;7.63;6.90;;;;;;;;;;5081314;28;21074;-75
2021/04/18 09:32:00;;;;;;;9.07;7.70;;;;;;;;;;5091701;28;20464;-75
2021/04/18 09:34:26;;;;;;;8.93;7.23;;;;;;;;;;5091311;28;20417;-75
2021/04/18 09:36:53;;;;;;;11.20;7.67;;;;;;;;;;5109333;28;20517;-75
2021/04/18 09:39:19;;;;;;;10.13;9.07;;;;;;;;;;5112615;28;20499;-75
2021/04/18 09:41:45;;;;;;;34.53;23.87;;;;;;;;;;5096693;28;20489;-75
2021/04/18 09:44:26;;;;;;;11.03;9.83;;;;;;;;;;5100305;28;20439;-77
2021/04/18 09:46:53;;;;;;;8.47;7.63;;;;;;;;;;5077849;28;21124;-77
2021/04/18 09:49:19;;;;;;;7.97;6.53;;;;;;;;;;5091489;28;20849;-77
2021/04/18 09:51:59;;;;;;;12.50;11.33;;;;;;;;;;5091553;28;20457;-78
2021/04/18 09:54:33;;;;;;;10.70;9.60;;;;;;;;;;5093964;28;20426;-76
2021/04/18 09:57:15;;;;;;;7.43;6.73;;;;;;;;;;5082070;28;20437;-78
2021/04/18 09:59:41;;;;;;;8.17;6.33;;;;;;;;;;5096198;28;20474;-77
2021/04/18 10:02:11;;;;;;;9.20;8.40;;;;;;;;;;5109993;28;20937;-78
2021/04/18 10:04:37;;;;;;;8.80;7.17;;;;;;;;;;5088820;28;20512;-76
2021/04/18 10:07:04;;;;;;;6.73;6.20;;;;;;;;;;5090878;28;20417;-76
2021/04/18 10:09:49;;;;;;;6.63;6.00;;;;;;;;;;5102740;28;20425;-77
2021/04/18 10:12:15;;;;;;;9.20;6.53;;;;;;;;;;5086976;28;20457;-76
2021/04/18 10:14:41;;;;;;;8.77;8.07;;;;;;;;;;5090406;28;20416;-76
2021/04/18 10:17:07;;;;;;;11.60;10.53;;;;;;;;;;5093215;28;20445;-75
2021/04/18 10:19:33;;;;;;;7.73;7.13;;;;;;;;;;5096341;28;20782;-76
2021/04/18 10:22:08;;;;;;;8.43;7.50;;;;;;;;;;5107630;28;20436;-76
2021/04/18 10:24:43;;;;;;;7.83;7.00;;;;;;;;;;5096412;28;20429;-76
2021/04/18 10:27:10;;;;;;;8.17;7.30;;;;;;;;;;5090621;28;20565;-76
2021/04/18 10:29:36;;;;;;;6.80;6.30;;;;;;;;;;5103040;28;20435;-76
2021/04/18 10:32:03;;;;;;;6.97;6.30;;;;;;;;;;5110993;28;20484;-76
2021/04/18 10:34:29;;;;;;;6.77;6.20;;;;;;;;;;5098240;28;20433;-76
2021/04/18 10:36:55;;;;;;;6.53;6.00;;;;;;;;;;5109796;28;20432;-76
2021/04/18 10:39:21;;;;;;;6.90;6.30;;;;;;;;;;5098998;28;20900;-77
2021/04/18 10:41:48;;;;;;;6.80;6.30;;;;;;;;;;5090574;28;20504;-78
2021/04/18 10:44:17;;;;;;;5.83;5.33;;;;;;;;;;5089879;28;20872;-76
2021/04/18 10:46:49;;;;;;;6.63;5.90;;;;;;;;;;5107804;27;20474;-75
2021/04/18 10:49:15;;;;;;;5.47;4.97;;;;;;;;;;5088718;28;20507;-76
2021/04/18 10:51:41;;;;;;;6.37;5.63;;;;;;;;;;5090025;28;20484;-76
2021/04/18 10:54:07;;;;;;;6.80;6.30;;;;;;;;;;5089424;28;20770;-76
2021/04/18 10:56:34;;;;;;;6.23;5.73;;;;;;;;;;5089614;28;20449;-76
2021/04/18 10:59:00;;;;;;;5.40;5.00;;;;;;;;;;5097817;28;20425;-76
2021/04/18 11:01:26;;;;;;;7.10;6.60;;;;;;;;;;5106544;28;20422;-77
2021/04/18 11:03:53;;;;;;;6.40;5.80;;;;;;;;;;5089694;28;20440;-76
2021/04/18 11:06:19;;;;;;;8.53;6.70;;;;;;;;;;5088272;28;20964;-76
2021/04/18 11:08:45;;;;;;;8.13;7.43;;;;;;;;;;5104360;28;20491;-76
2021/04/18 11:11:11;;;;;;;7.03;6.43;;;;;;;;;;5105365;28;20516;-76
2021/04/18 11:13:38;;;;;;;7.23;6.03;;;;;;;;;;5083499;28;20901;-76
2021/04/18 11:16:04;;;;;;;6.60;6.10;;;;;;;;;;5106810;28;20429;-76
2021/04/18 11:18:30;;;;;;;7.27;6.57;;;;;;;;;;5103740;28;20838;-76
2021/04/18 11:20:56;;;;;;;7.50;6.40;;;;;;;;;;5108564;28;20412;-76
2021/04/18 11:23:22;;;;;;;6.10;5.60;;;;;;;;;;5089458;28;20428;-76
2021/04/18 11:25:48;;;;;;;9.97;7.40;;;;;;;;;;5089027;28;20421;-76
2021/04/18 11:28:14;;;;;;;6.97;6.37;;;;;;;;;;5089444;28;20563;-76
2021/04/18 11:30:40;;;;;;;6.93;6.23;;;;;;;;;;5088312;28;20456;-74
2021/04/18 11:33:06;;;;;;;6.70;6.20;;;;;;;;;;5088989;28;20457;-74
2021/04/18 11:35:32;;;;;;;6.87;6.27;;;;;;;;;;5089718;28;20417;-76
2021/04/18 11:38:00;;;;;;;6.70;6.10;;;;;;;;;;5092589;28;20444;-75
2021/04/18 11:40:26;;;;;;;7.07;6.37;;;;;;;;;;5109849;28;20429;-75
2021/04/18 11:42:52;;;;;;;6.80;6.20;;;;;;;;;;5094927;28;20463;-76
2021/04/18 11:45:19;;;;;;;7.20;6.50;;;;;;;;;;5098488;28;20456;-76
2021/04/18 11:47:45;;;;;;;7.27;6.67;;;;;;;;;;5094182;27;20451;-76
2021/04/18 11:50:12;;;;;;;7.80;7.20;;;;;;;;;;5089272;28;20455;-75
2021/04/18 11:52:38;;;;;;;7.60;6.93;;;;;;;;;;5088350;28;20912;-76
2021/04/18 11:55:04;;;;;;;7.07;6.47;;;;;;;;;;5100888;28;20429;-76
2021/04/18 11:57:30;;;;;;;7.80;7.00;;;;;;;;;;5089139;28;20436;-75
2021/04/18 11:59:56;;;;;;;8.70;7.93;;;;;;;;;;5089158;28;20421;-76
2021/04/18 12:02:23;;;;;;;9.47;8.53;;;;;;;;;;5089004;28;20416;-76
2021/04/18 12:04:49;;;;;;;9.90;8.10;;;;;;;;;;5089381;28;20476;-78
2021/04/18 12:07:15;;;;;;;16.37;14.80;;;;;;;;;;5108183;28;20944;-76
2021/04/18 12:09:41;;;;;;;7.93;7.23;;;;;;;;;;5110086;28;20763;-77
2021/04/18 12:12:08;;;;;;;7.10;6.60;;;;;;;;;;5093237;28;20449;-75
2021/04/18 12:14:34;;;;;;;8.10;7.30;;;;;;;;;;5092307;28;20823;-77
2021/04/18 12:17:00;;;;;;;9.83;8.83;;;;;;;;;;5108024;28;20475;-76
2021/04/18 12:19:26;;;;;;;8.17;7.27;;;;;;;;;;5113583;28;20807;-77
2021/04/18 12:21:52;;;;;;;7.23;5.97;;;;;;;;;;5107319;28;20428;-74
2021/04/18 12:24:19;;;;;;;8.20;6.70;;;;;;;;;;5095227;28;20768;-76
2021/04/18 12:26:45;;;;;;;7.50;6.90;;;;;;;;;;5092959;28;20471;-76
2021/04/18 12:29:11;;;;;;;7.53;6.93;;;;;;;;;;5092481;28;20929;-76
2021/04/18 12:31:40;;;;;;;8.40;7.60;;;;;;;;;;5093058;28;20751;-76
2021/04/18 12:34:06;;;;;;;7.23;6.63;;;;;;;;;;5081846;28;20410;-75
2021/04/18 12:36:32;;;;;;;7.30;6.70;;;;;;;;;;5097094;28;20460;-75
2021/04/18 12:38:58;;;;;;;7.40;6.70;;;;;;;;;;5092857;28;20937;-75
2021/04/18 12:41:25;;;;;;;7.00;6.50;;;;;;;;;;5092864;28;20533;-76
2021/04/18 12:43:51;;;;;;;7.77;7.17;;;;;;;;;;5092771;28;20471;-75
2021/04/18 12:46:18;;;;;;;7.87;7.17;;;;;;;;;;5094468;28;20460;-75
2021/04/18 12:48:44;;;;;;;7.13;6.47;;;;;;;;;;5112942;28;20427;-75
2021/04/18 12:51:10;;;;;;;6.67;6.10;;;;;;;;;;5112776;28;20461;-76
2021/04/18 12:53:36;;;;;;;7.73;7.00;;;;;;;;;;5102939;28;20461;-75
2021/04/18 12:56:02;;;;;;;6.87;6.37;;;;;;;;;;5094654;28;20421;-76
2021/04/18 12:58:28;;;;;;;7.73;6.93;;;;;;;;;;5089603;28;20832;-77
2021/04/18 13:00:54;;;;;;;8.03;7.33;;;;;;;;;;5092374;28;20421;-76
2021/04/18 13:03:20;;;;;;;9.10;8.40;;;;;;;;;;5097184;28;20417;-75
2021/04/18 13:05:46;;;;;;;8.03;7.33;;;;;;;;;;5092022;28;20421;-75
2021/04/18 13:08:12;;;;;;;9.80;7.20;;;;;;;;;;5092237;28;20437;-75
2021/04/18 13:10:39;;;;;;;7.93;7.40;;;;;;;;;;5107338;28;20435;-75
2021/04/18 13:13:05;;;;;;;10.70;8.70;;;;;;;;;;5110018;27;20460;-76
2021/04/18 13:15:30;;;;;;;7.70;7.00;;;;;;;;;;5091774;28;20405;-76
2021/04/18 13:17:57;;;;;;;8.23;7.43;;;;;;;;;;5092149;28;20970;-75
2021/04/18 13:20:23;;;;;;;7.77;7.03;;;;;;;;;;5092412;28;21260;-75
2021/04/18 13:22:51;;;;;;;8.83;6.70;;;;;;;;;;5096865;28;20919;-76
2021/04/18 13:25:18;;;;;;;7.80;7.00;;;;;;;;;;5108410;28;20748;-77
2021/04/18 13:27:44;;;;;;;7.90;7.10;;;;;;;;;;5104735;28;20437;-76
2021/04/18 13:30:10;;;;;;;7.87;7.17;;;;;;;;;;5091586;28;20424;-76
2021/04/18 13:32:36;;;;;;;8.27;7.37;;;;;;;;;;5097978;28;20996;-77
2021/04/18 13:35:03;;;;;;;7.70;6.93;;;;;;;;;;5094704;28;20432;-76
2021/04/18 13:37:29;;;;;;;7.53;6.53;;;;;;;;;;5090087;28;20809;-77
2021/04/18 13:39:55;;;;;;;7.67;6.87;;;;;;;;;;5091649;28;20413;-77
2021/04/18 13:42:21;;;;;;;6.77;6.27;;;;;;;;;;5091680;28;20475;-76
2021/04/18 13:44:47;;;;;;;7.43;6.77;;;;;;;;;;5089592;28;20441;-76
2021/04/18 13:47:14;;;;;;;8.80;7.20;;;;;;;;;;5091604;28;20521;-76
2021/04/18 13:49:40;;;;;;;6.93;6.33;;;;;;;;;;5089965;28;21009;-75
2021/04/18 13:52:06;;;;;;;9.87;7.43;;;;;;;;;;5091441;28;20464;-76
2021/04/18 13:54:32;;;;;;;14.00;12.47;;;;;;;;;;5090901;28;20513;-76
2021/04/18 13:56:59;;;;;;;12.07;9.80;;;;;;;;;;5101555;28;20443;-76
2021/04/18 13:59:25;;;;;;;11.03;8.13;;;;;;;;;;5111631;28;20404;-77
2021/04/18 14:01:51;;;;;;;8.30;7.60;;;;;;;;;;5111618;28;20417;-76
2021/04/18 14:04:17;;;;;;;8.53;7.40;;;;;;;;;;5111086;28;20435;-76
2021/04/18 14:06:42;;;;;;;6.97;6.27;;;;;;;;;;5110145;28;20464;-77
2021/04/18 14:09:09;;;;;;;7.90;6.87;;;;;;;;;;5111415;28;20416;-76
2021/04/18 14:11:37;;;;;;;8.60;5.90;;;;;;;;;;5111274;28;20431;-75
2021/04/18 14:14:03;;;;;;;6.73;6.23;;;;;;;;;;5100457;28;20449;-75
2021/04/18 14:16:29;;;;;;;7.00;6.40;;;;;;;;;;5090842;28;20864;-75
2021/04/18 14:18:55;;;;;;;6.03;5.27;;;;;;;;;;5088271;28;20432;-75
2021/04/18 14:21:21;;;;;;;6.40;5.60;;;;;;;;;;5090993;28;20423;-75
2021/04/18 14:23:48;;;;;;;7.53;6.47;;;;;;;;;;5090186;28;20905;-75
2021/04/18 14:26:13;;;;;;;7.03;6.20;;;;;;;;;;5090697;28;20437;-76
2021/04/18 14:28:39;;;;;;;5.97;5.40;;;;;;;;;;5089654;28;20751;-76
2021/04/18 14:31:06;;;;;;;6.07;5.43;;;;;;;;;;5090759;28;20421;-76
2021/04/18 14:33:33;;;;;;;8.30;5.37;;;;;;;;;;5090230;28;20543;-76
2021/04/18 14:35:59;;;;;;;7.10;6.40;;;;;;;;;;5090661;28;20413;-75
2021/04/18 14:38:26;;;;;;;8.57;6.40;;;;;;;;;;5089163;28;20470;-76